sensor_id;sensor_type;location;lat;lon;timestamp;temperature;humidity
21646;DHT22;10984;45.712;4.800;2023-05-07T00:02:06;16.20;99.90
21646;DHT22;10984;45.712;4.800;2023-05-07T00:04:32;16.20;99.90
21646;DHT22;10984;45.712;4.800;2023-05-07T00:07:02;16.20;99.90
21646;DHT22;10984;45.712;4.800;2023-05-07T00:09:28;16.20;99.90
21646;DHT22;10984;45.712;4.800;2023-05-07T00:11:53;16.20;99.90
21646;DHT22;10984;45.712;4.800;2023-05-07T00:14:19;16.20;99.90
21646;DHT22;10984;45.712;4.800;2023-05-07T00:16:44;16.20;99.90
21646;DHT22;10984;45.712;4.800;2023-05-07T00:19:10;16.30;99.90
21646;DHT22;10984;45.712;4.800;2023-05-07T00:21:36;16.30;99.90
21646;DHT22;10984;45.712;4.800;2023-05-07T00:24:01;16.20;99.90
21646;DHT22;10984;45.712;4.800;2023-05-07T00:26:27;16.20;99.90
21646;DHT22;10984;45.712;4.800;2023-05-07T00:28:53;16.30;99.90
21646;DHT22;10984;45.712;4.800;2023-05-07T00:31:18;16.30;99.90
21646;DHT22;10984;45.712;4.800;2023-05-07T00:33:44;16.30;99.90
21646;DHT22;10984;45.712;4.800;2023-05-07T00:36:10;16.30;99.90
21646;DHT22;10984;45.712;4.800;2023-05-07T00:38:35;16.40;99.90
21646;DHT22;10984;45.712;4.800;2023-05-07T00:41:01;16.40;99.90
21646;DHT22;10984;45.712;4.800;2023-05-07T00:43:27;16.40;99.90
21646;DHT22;10984;45.712;4.800;2023-05-07T00:45:54;16.40;99.90
21646;DHT22;10984;45.712;4.800;2023-05-07T00:48:20;16.50;99.90
21646;DHT22;10984;45.712;4.800;2023-05-07T00:50:46;16.50;99.90
21646;DHT22;10984;45.712;4.800;2023-05-07T00:53:13;16.50;99.90
21646;DHT22;10984;45.712;4.800;2023-05-07T00:55:39;16.50;99.90
21646;DHT22;10984;45.712;4.800;2023-05-07T00:58:05;16.50;99.90
21646;DHT22;10984;45.712;4.800;2023-05-07T01:00:31;16.50;99.90
21646;DHT22;10984;45.712;4.800;2023-05-07T01:02:57;16.50;99.90
21646;DHT22;10984;45.712;4.800;2023-05-07T01:05:23;16.50;99.90
21646;DHT22;10984;45.712;4.800;2023-05-07T01:07:52;16.50;99.90
21646;DHT22;10984;45.712;4.800;2023-05-07T01:10:19;16.50;99.90
21646;DHT22;10984;45.712;4.800;2023-05-07T01:12:45;16.50;99.90
21646;DHT22;10984;45.712;4.800;2023-05-07T01:15:13;16.50;99.90
21646;DHT22;10984;45.712;4.800;2023-05-07T01:17:40;16.50;99.90
21646;DHT22;10984;45.712;4.800;2023-05-07T01:20:07;16.50;99.90
21646;DHT22;10984;45.712;4.800;2023-05-07T01:22:34;16.40;99.90
21646;DHT22;10984;45.712;4.800;2023-05-07T01:25:02;16.40;99.90
21646;DHT22;10984;45.712;4.800;2023-05-07T01:27:28;16.40;99.90
21646;DHT22;10984;45.712;4.800;2023-05-07T01:29:54;16.40;99.90
21646;DHT22;10984;45.712;4.800;2023-05-07T01:32:27;16.40;99.90
21646;DHT22;10984;45.712;4.800;2023-05-07T01:34:55;16.40;99.90
21646;DHT22;10984;45.712;4.800;2023-05-07T01:37:21;16.30;99.90
21646;DHT22;10984;45.712;4.800;2023-05-07T01:39:48;16.30;99.90
21646;DHT22;10984;45.712;4.800;2023-05-07T01:42:14;16.20;99.90
21646;DHT22;10984;45.712;4.800;2023-05-07T01:44:40;16.30;99.90
21646;DHT22;10984;45.712;4.800;2023-05-07T01:47:06;16.20;99.90
21646;DHT22;10984;45.712;4.800;2023-05-07T01:49:32;16.20;99.90
21646;DHT22;10984;45.712;4.800;2023-05-07T01:51:58;16.20;99.90
21646;DHT22;10984;45.712;4.800;2023-05-07T01:54:43;16.20;99.90
21646;DHT22;10984;45.712;4.800;2023-05-07T01:57:08;16.20;99.90
21646;DHT22;10984;45.712;4.800;2023-05-07T01:59:34;16.20;99.90
21646;DHT22;10984;45.712;4.800;2023-05-07T02:02:00;16.10;99.90
21646;DHT22;10984;45.712;4.800;2023-05-07T02:04:26;16.10;99.90
21646;DHT22;10984;45.712;4.800;2023-05-07T02:06:51;16.10;99.90
21646;DHT22;10984;45.712;4.800;2023-05-07T02:09:18;16.10;99.90
21646;DHT22;10984;45.712;4.800;2023-05-07T02:11:44;16.10;99.90
21646;DHT22;10984;45.712;4.800;2023-05-07T02:14:10;16.20;99.90
21646;DHT22;10984;45.712;4.800;2023-05-07T02:16:35;16.20;99.90
21646;DHT22;10984;45.712;4.800;2023-05-07T02:19:01;16.30;99.90
21646;DHT22;10984;45.712;4.800;2023-05-07T02:21:27;16.30;99.90
21646;DHT22;10984;45.712;4.800;2023-05-07T02:23:53;16.30;99.90
21646;DHT22;10984;45.712;4.800;2023-05-07T02:26:19;16.30;99.90
21646;DHT22;10984;45.712;4.800;2023-05-07T02:28:45;16.40;99.90
21646;DHT22;10984;45.712;4.800;2023-05-07T02:31:10;16.40;99.90
21646;DHT22;10984;45.712;4.800;2023-05-07T02:33:36;16.40;99.90
21646;DHT22;10984;45.712;4.800;2023-05-07T02:36:20;16.40;99.90
21646;DHT22;10984;45.712;4.800;2023-05-07T02:38:46;16.40;99.90
21646;DHT22;10984;45.712;4.800;2023-05-07T02:41:12;16.40;99.90
21646;DHT22;10984;45.712;4.800;2023-05-07T02:43:37;16.40;99.90
21646;DHT22;10984;45.712;4.800;2023-05-07T02:46:07;16.40;99.90
21646;DHT22;10984;45.712;4.800;2023-05-07T02:48:33;16.40;99.90
21646;DHT22;10984;45.712;4.800;2023-05-07T02:50:59;16.30;99.90
21646;DHT22;10984;45.712;4.800;2023-05-07T02:53:26;16.30;99.90
21646;DHT22;10984;45.712;4.800;2023-05-07T02:56:10;16.20;99.90
21646;DHT22;10984;45.712;4.800;2023-05-07T02:58:36;16.10;99.90
21646;DHT22;10984;45.712;4.800;2023-05-07T03:01:01;16.10;99.90
21646;DHT22;10984;45.712;4.800;2023-05-07T03:03:27;16.10;99.90
21646;DHT22;10984;45.712;4.800;2023-05-07T03:05:53;16.20;99.90
21646;DHT22;10984;45.712;4.800;2023-05-07T03:08:18;16.20;99.90
21646;DHT22;10984;45.712;4.800;2023-05-07T03:10:44;16.10;99.90
21646;DHT22;10984;45.712;4.800;2023-05-07T03:13:10;16.10;99.90
21646;DHT22;10984;45.712;4.800;2023-05-07T03:15:35;16.00;99.90
21646;DHT22;10984;45.712;4.800;2023-05-07T03:18:01;16.00;99.90
21646;DHT22;10984;45.712;4.800;2023-05-07T03:20:27;16.00;99.90
21646;DHT22;10984;45.712;4.800;2023-05-07T03:22:53;15.90;99.90
21646;DHT22;10984;45.712;4.800;2023-05-07T03:25:18;15.90;99.90
21646;DHT22;10984;45.712;4.800;2023-05-07T03:27:44;15.90;99.90
21646;DHT22;10984;45.712;4.800;2023-05-07T03:30:10;15.90;99.90
21646;DHT22;10984;45.712;4.800;2023-05-07T03:32:36;15.90;99.90
21646;DHT22;10984;45.712;4.800;2023-05-07T03:35:02;15.80;99.90
21646;DHT22;10984;45.712;4.800;2023-05-07T03:37:27;15.80;99.90
21646;DHT22;10984;45.712;4.800;2023-05-07T03:39:53;15.90;99.90
21646;DHT22;10984;45.712;4.800;2023-05-07T03:42:19;15.80;99.90
21646;DHT22;10984;45.712;4.800;2023-05-07T03:44:44;15.80;99.90
21646;DHT22;10984;45.712;4.800;2023-05-07T03:47:10;15.70;99.90
21646;DHT22;10984;45.712;4.800;2023-05-07T03:49:36;15.70;99.90
21646;DHT22;10984;45.712;4.800;2023-05-07T03:52:02;15.70;99.90
21646;DHT22;10984;45.712;4.800;2023-05-07T03:54:28;15.70;99.90
21646;DHT22;10984;45.712;4.800;2023-05-07T03:56:53;15.70;99.90
21646;DHT22;10984;45.712;4.800;2023-05-07T03:59:19;15.60;99.90
21646;DHT22;10984;45.712;4.800;2023-05-07T04:01:45;15.60;99.90
21646;DHT22;10984;45.712;4.800;2023-05-07T04:04:10;15.50;99.90
21646;DHT22;10984;45.712;4.800;2023-05-07T04:06:36;15.40;99.90
21646;DHT22;10984;45.712;4.800;2023-05-07T04:09:01;15.50;99.90
21646;DHT22;10984;45.712;4.800;2023-05-07T04:11:27;15.40;99.90
21646;DHT22;10984;45.712;4.800;2023-05-07T04:13:53;15.50;99.90
21646;DHT22;10984;45.712;4.800;2023-05-07T04:16:18;15.40;99.90
21646;DHT22;10984;45.712;4.800;2023-05-07T04:18:44;15.50;99.90
21646;DHT22;10984;45.712;4.800;2023-05-07T04:21:28;15.40;99.90
21646;DHT22;10984;45.712;4.800;2023-05-07T04:23:54;15.50;99.90
21646;DHT22;10984;45.712;4.800;2023-05-07T04:26:19;15.50;99.90
21646;DHT22;10984;45.712;4.800;2023-05-07T04:28:46;15.50;99.90
21646;DHT22;10984;45.712;4.800;2023-05-07T04:31:12;15.40;99.90
21646;DHT22;10984;45.712;4.800;2023-05-07T04:33:37;15.30;99.90
21646;DHT22;10984;45.712;4.800;2023-05-07T04:36:04;15.10;99.90
21646;DHT22;10984;45.712;4.800;2023-05-07T04:38:30;15.10;99.90
21646;DHT22;10984;45.712;4.800;2023-05-07T04:40:57;14.90;99.90
21646;DHT22;10984;45.712;4.800;2023-05-07T04:43:23;14.90;99.90
21646;DHT22;10984;45.712;4.800;2023-05-07T04:46:07;14.80;99.90
21646;DHT22;10984;45.712;4.800;2023-05-07T04:48:33;14.80;99.90
21646;DHT22;10984;45.712;4.800;2023-05-07T04:50:59;14.80;99.90
21646;DHT22;10984;45.712;4.800;2023-05-07T04:53:24;14.80;99.90
21646;DHT22;10984;45.712;4.800;2023-05-07T04:55:58;14.90;99.90
21646;DHT22;10984;45.712;4.800;2023-05-07T04:58:24;14.90;99.90
21646;DHT22;10984;45.712;4.800;2023-05-07T05:00:49;15.00;99.90
21646;DHT22;10984;45.712;4.800;2023-05-07T05:03:15;15.00;99.90
21646;DHT22;10984;45.712;4.800;2023-05-07T05:05:41;15.10;99.90
21646;DHT22;10984;45.712;4.800;2023-05-07T05:08:06;15.10;99.90
21646;DHT22;10984;45.712;4.800;2023-05-07T05:10:32;15.20;99.90
21646;DHT22;10984;45.712;4.800;2023-05-07T05:12:58;15.30;99.90
21646;DHT22;10984;45.712;4.800;2023-05-07T05:15:23;15.40;99.90
21646;DHT22;10984;45.712;4.800;2023-05-07T05:17:49;15.40;99.90
21646;DHT22;10984;45.712;4.800;2023-05-07T05:20:15;15.50;99.90
21646;DHT22;10984;45.712;4.800;2023-05-07T05:22:41;15.50;99.90
21646;DHT22;10984;45.712;4.800;2023-05-07T05:25:07;15.60;99.90
21646;DHT22;10984;45.712;4.800;2023-05-07T05:27:33;15.70;99.90
21646;DHT22;10984;45.712;4.800;2023-05-07T05:29:59;15.90;99.90
21646;DHT22;10984;45.712;4.800;2023-05-07T05:32:25;16.00;99.90
21646;DHT22;10984;45.712;4.800;2023-05-07T05:34:51;16.20;99.90
21646;DHT22;10984;45.712;4.800;2023-05-07T05:37:16;16.30;99.90
21646;DHT22;10984;45.712;4.800;2023-05-07T05:39:42;16.40;99.90
21646;DHT22;10984;45.712;4.800;2023-05-07T05:42:08;16.50;99.90
21646;DHT22;10984;45.712;4.800;2023-05-07T05:44:33;16.50;99.90
21646;DHT22;10984;45.712;4.800;2023-05-07T05:46:59;16.60;99.90
21646;DHT22;10984;45.712;4.800;2023-05-07T05:49:25;16.80;99.90
21646;DHT22;10984;45.712;4.800;2023-05-07T05:51:51;17.10;99.90
21646;DHT22;10984;45.712;4.800;2023-05-07T05:54:16;17.30;99.90
21646;DHT22;10984;45.712;4.800;2023-05-07T05:56:42;17.70;99.90
21646;DHT22;10984;45.712;4.800;2023-05-07T05:59:08;18.10;99.90
21646;DHT22;10984;45.712;4.800;2023-05-07T06:01:33;18.60;99.90
21646;DHT22;10984;45.712;4.800;2023-05-07T06:03:59;18.90;99.90
21646;DHT22;10984;45.712;4.800;2023-05-07T06:06:25;19.20;99.90
21646;DHT22;10984;45.712;4.800;2023-05-07T06:08:51;19.60;99.90
21646;DHT22;10984;45.712;4.800;2023-05-07T06:11:16;20.30;99.90
21646;DHT22;10984;45.712;4.800;2023-05-07T06:13:42;21.30;99.90
21646;DHT22;10984;45.712;4.800;2023-05-07T06:16:08;22.30;99.90
21646;DHT22;10984;45.712;4.800;2023-05-07T06:18:33;23.20;99.90
21646;DHT22;10984;45.712;4.800;2023-05-07T06:21:01;23.50;99.90
21646;DHT22;10984;45.712;4.800;2023-05-07T06:23:27;23.10;99.90
21646;DHT22;10984;45.712;4.800;2023-05-07T06:25:52;22.80;99.90
21646;DHT22;10984;45.712;4.800;2023-05-07T06:28:18;22.60;99.90
21646;DHT22;10984;45.712;4.800;2023-05-07T06:30:44;21.80;99.90
21646;DHT22;10984;45.712;4.800;2023-05-07T06:33:10;21.30;99.90
21646;DHT22;10984;45.712;4.800;2023-05-07T06:35:36;20.80;99.90
21646;DHT22;10984;45.712;4.800;2023-05-07T06:38:01;20.40;99.90
21646;DHT22;10984;45.712;4.800;2023-05-07T06:40:27;19.80;99.90
21646;DHT22;10984;45.712;4.800;2023-05-07T06:42:53;19.60;99.90
21646;DHT22;10984;45.712;4.800;2023-05-07T06:45:19;19.30;99.90
21646;DHT22;10984;45.712;4.800;2023-05-07T06:47:45;19.20;99.90
21646;DHT22;10984;45.712;4.800;2023-05-07T06:50:11;19.10;99.90
21646;DHT22;10984;45.712;4.800;2023-05-07T06:52:36;18.90;99.90
21646;DHT22;10984;45.712;4.800;2023-05-07T06:55:02;18.90;99.90
21646;DHT22;10984;45.712;4.800;2023-05-07T06:57:28;19.00;99.90
21646;DHT22;10984;45.712;4.800;2023-05-07T06:59:54;18.90;99.90
21646;DHT22;10984;45.712;4.800;2023-05-07T07:02:19;18.90;99.90
21646;DHT22;10984;45.712;4.800;2023-05-07T07:04:45;19.00;99.90
21646;DHT22;10984;45.712;4.800;2023-05-07T07:07:11;19.00;99.90
21646;DHT22;10984;45.712;4.800;2023-05-07T07:09:36;19.10;99.90
21646;DHT22;10984;45.712;4.800;2023-05-07T07:12:03;19.10;99.90
21646;DHT22;10984;45.712;4.800;2023-05-07T07:14:29;19.10;99.90
21646;DHT22;10984;45.712;4.800;2023-05-07T07:16:54;19.20;99.90
21646;DHT22;10984;45.712;4.800;2023-05-07T07:19:20;19.20;99.90
21646;DHT22;10984;45.712;4.800;2023-05-07T07:21:46;19.30;99.90
21646;DHT22;10984;45.712;4.800;2023-05-07T07:24:13;19.30;99.90
21646;DHT22;10984;45.712;4.800;2023-05-07T07:26:44;19.40;99.90
21646;DHT22;10984;45.712;4.800;2023-05-07T07:29:10;19.40;99.90
21646;DHT22;10984;45.712;4.800;2023-05-07T07:31:36;19.50;99.90
21646;DHT22;10984;45.712;4.800;2023-05-07T07:34:01;19.60;99.90
21646;DHT22;10984;45.712;4.800;2023-05-07T07:36:27;19.60;99.90
21646;DHT22;10984;45.712;4.800;2023-05-07T07:38:53;19.60;99.90
21646;DHT22;10984;45.712;4.800;2023-05-07T07:41:19;19.50;99.90
21646;DHT22;10984;45.712;4.800;2023-05-07T07:43:44;19.50;99.90
21646;DHT22;10984;45.712;4.800;2023-05-07T07:46:12;19.40;99.90
21646;DHT22;10984;45.712;4.800;2023-05-07T07:48:37;19.40;99.90
21646;DHT22;10984;45.712;4.800;2023-05-07T07:51:03;19.40;99.90
21646;DHT22;10984;45.712;4.800;2023-05-07T07:53:29;19.30;99.90
21646;DHT22;10984;45.712;4.800;2023-05-07T07:55:55;19.20;99.90
21646;DHT22;10984;45.712;4.800;2023-05-07T07:58:21;19.30;99.90
21646;DHT22;10984;45.712;4.800;2023-05-07T08:00:47;19.30;99.90
21646;DHT22;10984;45.712;4.800;2023-05-07T08:03:13;19.30;99.90
21646;DHT22;10984;45.712;4.800;2023-05-07T08:05:39;19.30;99.90
21646;DHT22;10984;45.712;4.800;2023-05-07T08:08:05;19.30;99.90
21646;DHT22;10984;45.712;4.800;2023-05-07T08:10:31;19.10;99.90
21646;DHT22;10984;45.712;4.800;2023-05-07T08:13:00;18.90;99.90
21646;DHT22;10984;45.712;4.800;2023-05-07T08:15:26;18.80;99.90
21646;DHT22;10984;45.712;4.800;2023-05-07T08:17:51;18.70;99.90
21646;DHT22;10984;45.712;4.800;2023-05-07T08:20:17;18.60;99.90
21646;DHT22;10984;45.712;4.800;2023-05-07T08:22:43;18.50;99.90
21646;DHT22;10984;45.712;4.800;2023-05-07T08:25:09;18.50;99.90
21646;DHT22;10984;45.712;4.800;2023-05-07T08:27:34;18.50;99.90
21646;DHT22;10984;45.712;4.800;2023-05-07T08:30:00;18.40;99.90
21646;DHT22;10984;45.712;4.800;2023-05-07T08:32:26;18.50;99.90
21646;DHT22;10984;45.712;4.800;2023-05-07T08:34:53;18.40;99.90
21646;DHT22;10984;45.712;4.800;2023-05-07T08:37:18;18.40;99.90
21646;DHT22;10984;45.712;4.800;2023-05-07T08:39:44;18.40;99.90
21646;DHT22;10984;45.712;4.800;2023-05-07T08:42:11;18.40;99.90
21646;DHT22;10984;45.712;4.800;2023-05-07T08:44:38;18.50;99.90
21646;DHT22;10984;45.712;4.800;2023-05-07T08:47:06;18.40;99.90
21646;DHT22;10984;45.712;4.800;2023-05-07T08:49:33;18.50;99.90
21646;DHT22;10984;45.712;4.800;2023-05-07T08:51:59;18.50;99.90
21646;DHT22;10984;45.712;4.800;2023-05-07T08:54:26;18.40;99.90
21646;DHT22;10984;45.712;4.800;2023-05-07T08:56:53;18.40;99.90
21646;DHT22;10984;45.712;4.800;2023-05-07T08:59:18;18.30;99.90
21646;DHT22;10984;45.712;4.800;2023-05-07T09:01:44;18.40;99.90
21646;DHT22;10984;45.712;4.800;2023-05-07T09:04:10;18.30;99.90
21646;DHT22;10984;45.712;4.800;2023-05-07T09:06:35;18.30;99.90
21646;DHT22;10984;45.712;4.800;2023-05-07T09:09:03;18.30;99.90
21646;DHT22;10984;45.712;4.800;2023-05-07T09:11:30;18.30;99.90
21646;DHT22;10984;45.712;4.800;2023-05-07T09:13:57;18.30;99.90
21646;DHT22;10984;45.712;4.800;2023-05-07T09:16:25;18.20;99.90
21646;DHT22;10984;45.712;4.800;2023-05-07T09:18:52;18.30;99.90
21646;DHT22;10984;45.712;4.800;2023-05-07T09:21:20;18.20;99.90
21646;DHT22;10984;45.712;4.800;2023-05-07T09:26:32;18.20;99.90
21646;DHT22;10984;45.712;4.800;2023-05-07T09:28:59;18.20;99.90
21646;DHT22;10984;45.712;4.800;2023-05-07T09:31:24;18.20;99.90
21646;DHT22;10984;45.712;4.800;2023-05-07T09:33:52;18.30;99.90
21646;DHT22;10984;45.712;4.800;2023-05-07T09:36:18;18.30;99.90
21646;DHT22;10984;45.712;4.800;2023-05-07T09:38:45;18.40;99.90
21646;DHT22;10984;45.712;4.800;2023-05-07T09:41:12;18.50;99.90
21646;DHT22;10984;45.712;4.800;2023-05-07T09:43:39;18.60;99.90
21646;DHT22;10984;45.712;4.800;2023-05-07T09:46:25;18.70;99.90
21646;DHT22;10984;45.712;4.800;2023-05-07T09:48:52;18.90;99.90
21646;DHT22;10984;45.712;4.800;2023-05-07T09:51:25;19.00;99.90
21646;DHT22;10984;45.712;4.800;2023-05-07T09:53:54;19.10;99.90
21646;DHT22;10984;45.712;4.800;2023-05-07T09:56:21;19.30;99.90
21646;DHT22;10984;45.712;4.800;2023-05-07T09:58:48;19.50;99.90
21646;DHT22;10984;45.712;4.800;2023-05-07T10:01:16;19.60;99.90
21646;DHT22;10984;45.712;4.800;2023-05-07T10:03:43;19.50;99.90
21646;DHT22;10984;45.712;4.800;2023-05-07T10:06:10;19.60;99.90
21646;DHT22;10984;45.712;4.800;2023-05-07T10:08:37;19.80;99.90
21646;DHT22;10984;45.712;4.800;2023-05-07T10:11:05;19.70;99.90
21646;DHT22;10984;45.712;4.800;2023-05-07T10:13:33;19.70;99.90
21646;DHT22;10984;45.712;4.800;2023-05-07T10:16:02;19.60;99.90
21646;DHT22;10984;45.712;4.800;2023-05-07T10:18:30;19.60;99.90
21646;DHT22;10984;45.712;4.800;2023-05-07T10:21:11;19.70;99.90
21646;DHT22;10984;45.712;4.800;2023-05-07T10:23:38;19.70;99.90
21646;DHT22;10984;45.712;4.800;2023-05-07T10:26:06;19.70;99.90
21646;DHT22;10984;45.712;4.800;2023-05-07T10:28:37;19.60;99.90
21646;DHT22;10984;45.712;4.800;2023-05-07T10:34:10;19.40;99.90
21646;DHT22;10984;45.712;4.800;2023-05-07T10:36:37;19.30;99.90
21646;DHT22;10984;45.712;4.800;2023-05-07T10:39:05;19.20;99.90
21646;DHT22;10984;45.712;4.800;2023-05-07T10:41:31;19.10;99.90
21646;DHT22;10984;45.712;4.800;2023-05-07T10:43:57;19.00;99.90
21646;DHT22;10984;45.712;4.800;2023-05-07T10:52:29;18.90;99.90
21646;DHT22;10984;45.712;4.800;2023-05-07T11:01:04;18.80;99.90
21646;DHT22;10984;45.712;4.800;2023-05-07T11:03:30;18.90;99.90
21646;DHT22;10984;45.712;4.800;2023-05-07T11:06:15;18.80;99.90
21646;DHT22;10984;45.712;4.800;2023-05-07T11:08:59;18.70;99.90
21646;DHT22;10984;45.712;4.800;2023-05-07T11:14:09;18.50;99.90
21646;DHT22;10984;45.712;4.800;2023-05-07T11:16:35;18.40;99.90
21646;DHT22;10984;45.712;4.800;2023-05-07T11:19:04;18.50;99.90
21646;DHT22;10984;45.712;4.800;2023-05-07T11:21:48;18.50;99.90
21646;DHT22;10984;45.712;4.800;2023-05-07T11:24:14;18.60;99.90
21646;DHT22;10984;45.712;4.800;2023-05-07T11:27:00;18.60;99.90
21646;DHT22;10984;45.712;4.800;2023-05-07T11:29:26;18.70;99.90
21646;DHT22;10984;45.712;4.800;2023-05-07T11:31:54;18.80;99.90
21646;DHT22;10984;45.712;4.800;2023-05-07T11:34:38;18.70;99.90
21646;DHT22;10984;45.712;4.800;2023-05-07T11:37:04;18.60;99.90
21646;DHT22;10984;45.712;4.800;2023-05-07T11:39:32;18.60;99.90
21646;DHT22;10984;45.712;4.800;2023-05-07T11:42:36;18.60;99.90
21646;DHT22;10984;45.712;4.800;2023-05-07T11:45:03;18.60;99.90
21646;DHT22;10984;45.712;4.800;2023-05-07T11:47:47;18.80;99.90
21646;DHT22;10984;45.712;4.800;2023-05-07T11:50:13;18.80;99.90
21646;DHT22;10984;45.712;4.800;2023-05-07T11:52:39;18.90;99.90
21646;DHT22;10984;45.712;4.800;2023-05-07T11:55:04;18.80;99.90
21646;DHT22;10984;45.712;4.800;2023-05-07T11:57:30;19.10;99.90
21646;DHT22;10984;45.712;4.800;2023-05-07T11:59:59;19.10;99.90
21646;DHT22;10984;45.712;4.800;2023-05-07T12:02:25;19.10;99.90
21646;DHT22;10984;45.712;4.800;2023-05-07T12:04:51;19.20;99.90
21646;DHT22;10984;45.712;4.800;2023-05-07T12:07:17;19.30;99.90
21646;DHT22;10984;45.712;4.800;2023-05-07T12:09:44;19.50;99.90
21646;DHT22;10984;45.712;4.800;2023-05-07T12:12:10;19.70;99.90
21646;DHT22;10984;45.712;4.800;2023-05-07T12:14:55;20.00;99.90
21646;DHT22;10984;45.712;4.800;2023-05-07T12:17:20;20.20;99.90
21646;DHT22;10984;45.712;4.800;2023-05-07T12:19:47;20.20;99.90
21646;DHT22;10984;45.712;4.800;2023-05-07T12:22:13;20.40;99.90
21646;DHT22;10984;45.712;4.800;2023-05-07T12:24:57;20.60;99.90
21646;DHT22;10984;45.712;4.800;2023-05-07T12:27:24;20.70;99.90
21646;DHT22;10984;45.712;4.800;2023-05-07T12:29:50;20.50;99.90
21646;DHT22;10984;45.712;4.800;2023-05-07T12:32:17;20.40;99.90
21646;DHT22;10984;45.712;4.800;2023-05-07T12:34:44;20.20;99.90
21646;DHT22;10984;45.712;4.800;2023-05-07T12:37:10;20.20;99.90
21646;DHT22;10984;45.712;4.800;2023-05-07T12:39:36;20.20;99.90
21646;DHT22;10984;45.712;4.800;2023-05-07T12:42:02;20.20;99.90
21646;DHT22;10984;45.712;4.800;2023-05-07T12:44:46;20.20;99.90
21646;DHT22;10984;45.712;4.800;2023-05-07T12:47:12;20.10;99.90
21646;DHT22;10984;45.712;4.800;2023-05-07T12:49:38;20.20;99.90
21646;DHT22;10984;45.712;4.800;2023-05-07T12:52:05;20.30;99.90
21646;DHT22;10984;45.712;4.800;2023-05-07T12:54:33;20.20;99.90
21646;DHT22;10984;45.712;4.800;2023-05-07T12:57:18;20.40;99.90
21646;DHT22;10984;45.712;4.800;2023-05-07T12:59:44;20.30;99.90
21646;DHT22;10984;45.712;4.800;2023-05-07T13:02:10;20.30;99.90
21646;DHT22;10984;45.712;4.800;2023-05-07T13:04:36;19.90;99.90
21646;DHT22;10984;45.712;4.800;2023-05-07T13:07:02;19.90;99.90
21646;DHT22;10984;45.712;4.800;2023-05-07T13:09:28;20.00;99.90
21646;DHT22;10984;45.712;4.800;2023-05-07T13:12:12;19.90;99.90
21646;DHT22;10984;45.712;4.800;2023-05-07T13:14:37;20.00;99.90
21646;DHT22;10984;45.712;4.800;2023-05-07T13:17:03;20.00;99.90
21646;DHT22;10984;45.712;4.800;2023-05-07T13:19:29;20.00;99.90
21646;DHT22;10984;45.712;4.800;2023-05-07T13:21:55;20.30;99.90
21646;DHT22;10984;45.712;4.800;2023-05-07T13:24:20;20.60;99.90
21646;DHT22;10984;45.712;4.800;2023-05-07T13:26:46;20.70;99.90
21646;DHT22;10984;45.712;4.800;2023-05-07T13:29:12;20.80;99.90
21646;DHT22;10984;45.712;4.800;2023-05-07T13:31:37;20.40;99.90
21646;DHT22;10984;45.712;4.800;2023-05-07T13:34:07;20.50;99.90
21646;DHT22;10984;45.712;4.800;2023-05-07T13:36:33;20.50;99.90
21646;DHT22;10984;45.712;4.800;2023-05-07T13:39:03;20.60;99.90
21646;DHT22;10984;45.712;4.800;2023-05-07T13:41:29;20.60;99.90
21646;DHT22;10984;45.712;4.800;2023-05-07T13:43:55;20.70;99.90
21646;DHT22;10984;45.712;4.800;2023-05-07T13:46:21;20.50;99.90
21646;DHT22;10984;45.712;4.800;2023-05-07T13:48:47;20.30;99.90
21646;DHT22;10984;45.712;4.800;2023-05-07T13:51:12;20.50;99.90
21646;DHT22;10984;45.712;4.800;2023-05-07T13:53:38;20.70;99.90
21646;DHT22;10984;45.712;4.800;2023-05-07T13:56:04;20.80;99.90
21646;DHT22;10984;45.712;4.800;2023-05-07T13:58:30;20.90;99.90
21646;DHT22;10984;45.712;4.800;2023-05-07T14:00:56;21.00;99.90
21646;DHT22;10984;45.712;4.800;2023-05-07T14:03:21;21.10;99.90
21646;DHT22;10984;45.712;4.800;2023-05-07T14:05:47;21.20;99.90
21646;DHT22;10984;45.712;4.800;2023-05-07T14:08:13;21.10;99.90
21646;DHT22;10984;45.712;4.800;2023-05-07T14:10:39;20.90;99.90
21646;DHT22;10984;45.712;4.800;2023-05-07T14:13:05;20.80;99.90
21646;DHT22;10984;45.712;4.800;2023-05-07T14:15:31;20.80;99.90
21646;DHT22;10984;45.712;4.800;2023-05-07T14:18:16;20.80;99.90
21646;DHT22;10984;45.712;4.800;2023-05-07T14:20:41;20.40;99.90
21646;DHT22;10984;45.712;4.800;2023-05-07T14:23:09;20.30;99.90
21646;DHT22;10984;45.712;4.800;2023-05-07T14:25:35;20.40;99.90
21646;DHT22;10984;45.712;4.800;2023-05-07T14:28:00;20.40;99.90
21646;DHT22;10984;45.712;4.800;2023-05-07T14:30:26;20.20;99.90
21646;DHT22;10984;45.712;4.800;2023-05-07T14:32:52;20.40;99.90
21646;DHT22;10984;45.712;4.800;2023-05-07T14:35:17;20.60;99.90
21646;DHT22;10984;45.712;4.800;2023-05-07T14:37:43;20.50;99.90
21646;DHT22;10984;45.712;4.800;2023-05-07T14:40:09;20.70;99.90
21646;DHT22;10984;45.712;4.800;2023-05-07T14:42:35;20.90;99.90
21646;DHT22;10984;45.712;4.800;2023-05-07T14:45:01;21.10;99.90
21646;DHT22;10984;45.712;4.800;2023-05-07T14:47:27;20.80;99.90
21646;DHT22;10984;45.712;4.800;2023-05-07T14:49:53;20.90;99.90
21646;DHT22;10984;45.712;4.800;2023-05-07T14:52:19;20.70;99.90
21646;DHT22;10984;45.712;4.800;2023-05-07T14:54:45;20.80;99.90
21646;DHT22;10984;45.712;4.800;2023-05-07T14:57:14;20.60;99.90
21646;DHT22;10984;45.712;4.800;2023-05-07T14:59:41;20.50;99.90
21646;DHT22;10984;45.712;4.800;2023-05-07T15:02:08;20.70;99.90
21646;DHT22;10984;45.712;4.800;2023-05-07T15:04:34;21.00;99.90
21646;DHT22;10984;45.712;4.800;2023-05-07T15:07:00;21.00;99.90
21646;DHT22;10984;45.712;4.800;2023-05-07T15:09:26;21.00;99.90
21646;DHT22;10984;45.712;4.800;2023-05-07T15:11:52;21.20;99.90
21646;DHT22;10984;45.712;4.800;2023-05-07T15:14:18;21.10;99.90
21646;DHT22;10984;45.712;4.800;2023-05-07T15:16:44;21.10;99.90
21646;DHT22;10984;45.712;4.800;2023-05-07T15:19:10;21.10;99.90
21646;DHT22;10984;45.712;4.800;2023-05-07T15:21:36;20.90;99.90
21646;DHT22;10984;45.712;4.800;2023-05-07T15:24:02;20.90;99.90
21646;DHT22;10984;45.712;4.800;2023-05-07T15:26:28;21.00;99.90
21646;DHT22;10984;45.712;4.800;2023-05-07T15:28:54;21.10;99.90
21646;DHT22;10984;45.712;4.800;2023-05-07T15:31:23;21.00;99.90
21646;DHT22;10984;45.712;4.800;2023-05-07T15:33:49;20.90;99.90
21646;DHT22;10984;45.712;4.800;2023-05-07T15:36:15;21.10;99.90
21646;DHT22;10984;45.712;4.800;2023-05-07T15:38:41;21.00;99.90
21646;DHT22;10984;45.712;4.800;2023-05-07T15:41:07;20.90;99.90
21646;DHT22;10984;45.712;4.800;2023-05-07T15:43:32;20.90;99.90
21646;DHT22;10984;45.712;4.800;2023-05-07T15:45:58;20.80;99.90
21646;DHT22;10984;45.712;4.800;2023-05-07T15:48:25;20.70;99.90
21646;DHT22;10984;45.712;4.800;2023-05-07T15:50:51;20.40;99.90